الصفحة الرئيسية
METAR-TAF:

METAR-TAF

مطار :

Kununurra, أستراليا

دائرة عرض: 15-46S, خط طول: 128-42E, ارتفاع: 44 متر

مراقبة الطقس الحالي

تاريخ ووقت الإصدار 43 دقيقة قبل الساعة 21:00UTC
رياح هادئة
درجة الحرارة 14°درجة مئوية
الرطوبة 94%
ضغط 1015 hPa
الرؤية 10 كم أو أكثر

METAR: YPKU 252100Z AUTO 00000KT 9999 // NCD 14/13 Q1015

زمن: 05:43 (21:43 UTC)

توقعات

تاريخ ووقت الإصدار 3ساعات و 7 دقيقة قبل الساعة 18:36UTC
التوقعات صالحة من25 الساعة 20 UTC إلى 26 الساعة 08 UTC
ريح 8 عقدة من الشمال الشرقي
الرؤية 10 كم أو أكثر
الغيوم لا تقل 1500 م ولا وجود لمزنة ركامية السحاب الأسود

TAF: YPKU 251836Z 2520/2608 05008KT CAVOK

أرصاد الطقس والتوقعات من أكثر من 4000 مطار (تقارير الطقس للمطار METAR والتنبؤ بالطقس بالمطارTAF).

المحطات المتاحة هي النقط الصفراء والحمراء على الخريطة.

حرك المؤشر فوق النقطة لمعرفة اسم المحطة.

ثم انقر لمعرفة أرصاد وتوقعات الطقس.

لتغيير الخارطة: اضغط على الأزرار الخضراء مع رمز الصليب الأسود للتكبير. على الزر الأخضر مع شرطة للتصغير، أو على الأسهم الخضراء للخرائط المجاورة.


METAR-TAF: